sensor_id;sensor_type;location;lat;lon;timestamp;P1;durP1;ratioP1;P2;durP2;ratioP2
41623;SDS011;27319;50.306;18.926;2022-10-31T00:01:35;26.05;;;14.73;;
41623;SDS011;27319;50.306;18.926;2022-10-31T00:04:37;27.63;;;14.95;;
41623;SDS011;27319;50.306;18.926;2022-10-31T00:07:38;25.27;;;14.88;;
41623;SDS011;27319;50.306;18.926;2022-10-31T00:10:39;24.85;;;14.13;;
41623;SDS011;27319;50.306;18.926;2022-10-31T00:13:41;23.45;;;14.10;;
41623;SDS011;27319;50.306;18.926;2022-10-31T00:16:42;22.17;;;14.75;;
41623;SDS011;27319;50.306;18.926;2022-10-31T00:19:43;26.58;;;14.50;;
41623;SDS011;27319;50.306;18.926;2022-10-31T00:22:44;24.02;;;15.20;;
41623;SDS011;27319;50.306;18.926;2022-10-31T00:25:45;28.45;;;14.35;;
41623;SDS011;27319;50.306;18.926;2022-10-31T00:28:45;24.90;;;15.00;;
41623;SDS011;27319;50.306;18.926;2022-10-31T00:32:46;22.73;;;13.38;;
41623;SDS011;27319;50.306;18.926;2022-10-31T00:36:46;23.40;;;13.50;;
41623;SDS011;27319;50.306;18.926;2022-10-31T00:40:47;21.52;;;13.48;;
41623;SDS011;27319;50.306;18.926;2022-10-31T00:44:48;22.77;;;13.73;;
41623;SDS011;27319;50.306;18.926;2022-10-31T00:47:49;22.35;;;14.23;;
41623;SDS011;27319;50.306;18.926;2022-10-31T00:50:50;19.50;;;12.60;;
41623;SDS011;27319;50.306;18.926;2022-10-31T00:53:51;32.42;;;13.88;;
41623;SDS011;27319;50.306;18.926;2022-10-31T00:56:52;19.92;;;12.85;;
41623;SDS011;27319;50.306;18.926;2022-10-31T00:59:53;20.48;;;14.02;;
41623;SDS011;27319;50.306;18.926;2022-10-31T01:02:54;24.38;;;13.20;;
41623;SDS011;27319;50.306;18.926;2022-10-31T01:06:54;19.13;;;13.00;;
41623;SDS011;27319;50.306;18.926;2022-10-31T01:15:09;23.80;;;12.00;;
41623;SDS011;27319;50.306;18.926;2022-10-31T01:19:09;21.85;;;12.45;;
41623;SDS011;27319;50.306;18.926;2022-10-31T01:23:09;21.35;;;12.52;;
41623;SDS011;27319;50.306;18.926;2022-10-31T01:27:10;18.30;;;12.65;;
41623;SDS011;27319;50.306;18.926;2022-10-31T01:31:11;21.50;;;12.75;;
41623;SDS011;27319;50.306;18.926;2022-10-31T01:35:11;24.80;;;14.02;;
41623;SDS011;27319;50.306;18.926;2022-10-31T01:39:13;24.42;;;14.18;;
41623;SDS011;27319;50.306;18.926;2022-10-31T01:42:16;24.02;;;12.80;;
41623;SDS011;27319;50.306;18.926;2022-10-31T01:46:17;24.77;;;14.70;;
41623;SDS011;27319;50.306;18.926;2022-10-31T01:50:27;27.88;;;14.52;;
41623;SDS011;27319;50.306;18.926;2022-10-31T01:54:27;23.90;;;13.48;;
41623;SDS011;27319;50.306;18.926;2022-10-31T01:58:18;19.23;;;12.40;;
41623;SDS011;27319;50.306;18.926;2022-10-31T02:05:21;22.02;;;13.30;;
41623;SDS011;27319;50.306;18.926;2022-10-31T02:08:27;20.88;;;13.27;;
41623;SDS011;27319;50.306;18.926;2022-10-31T02:11:29;22.00;;;12.65;;
41623;SDS011;27319;50.306;18.926;2022-10-31T02:14:31;19.58;;;12.60;;
41623;SDS011;27319;50.306;18.926;2022-10-31T02:17:33;19.48;;;12.43;;
41623;SDS011;27319;50.306;18.926;2022-10-31T02:34:26;16.98;;;11.85;;
41623;SDS011;27319;50.306;18.926;2022-10-31T02:37:48;25.55;;;13.18;;
41623;SDS011;27319;50.306;18.926;2022-10-31T02:41:01;18.65;;;11.88;;
41623;SDS011;27319;50.306;18.926;2022-10-31T02:47:37;21.77;;;12.18;;
41623;SDS011;27319;50.306;18.926;2022-10-31T02:50:39;19.80;;;12.20;;
41623;SDS011;27319;50.306;18.926;2022-10-31T02:53:46;18.67;;;12.30;;
41623;SDS011;27319;50.306;18.926;2022-10-31T02:56:47;19.33;;;13.02;;
41623;SDS011;27319;50.306;18.926;2022-10-31T02:59:53;21.75;;;13.20;;
41623;SDS011;27319;50.306;18.926;2022-10-31T03:03:15;19.35;;;13.48;;
41623;SDS011;27319;50.306;18.926;2022-10-31T03:07:36;22.27;;;12.98;;
41623;SDS011;27319;50.306;18.926;2022-10-31T03:11:01;26.52;;;12.60;;
41623;SDS011;27319;50.306;18.926;2022-10-31T03:15:08;20.10;;;12.45;;
41623;SDS011;27319;50.306;18.926;2022-10-31T03:19:11;17.58;;;12.15;;
41623;SDS011;27319;50.306;18.926;2022-10-31T03:23:13;24.75;;;13.02;;
41623;SDS011;27319;50.306;18.926;2022-10-31T03:27:12;19.13;;;11.90;;
41623;SDS011;27319;50.306;18.926;2022-10-31T03:31:13;21.52;;;12.82;;
41623;SDS011;27319;50.306;18.926;2022-10-31T03:35:13;25.48;;;12.70;;
41623;SDS011;27319;50.306;18.926;2022-10-31T03:39:14;21.52;;;12.63;;
41623;SDS011;27319;50.306;18.926;2022-10-31T03:43:15;23.10;;;12.50;;
41623;SDS011;27319;50.306;18.926;2022-10-31T03:47:15;20.13;;;12.90;;
41623;SDS011;27319;50.306;18.926;2022-10-31T03:54:44;22.10;;;12.88;;
41623;SDS011;27319;50.306;18.926;2022-10-31T03:58:57;22.65;;;12.82;;
41623;SDS011;27319;50.306;18.926;2022-10-31T04:03:16;25.13;;;13.00;;
41623;SDS011;27319;50.306;18.926;2022-10-31T04:06:21;20.17;;;12.63;;
41623;SDS011;27319;50.306;18.926;2022-10-31T04:09:25;23.05;;;13.82;;
41623;SDS011;27319;50.306;18.926;2022-10-31T04:12:28;21.98;;;13.25;;
41623;SDS011;27319;50.306;18.926;2022-10-31T04:15:31;21.30;;;11.73;;
41623;SDS011;27319;50.306;18.926;2022-10-31T04:18:33;20.67;;;12.95;;
41623;SDS011;27319;50.306;18.926;2022-10-31T04:21:35;22.73;;;12.98;;
41623;SDS011;27319;50.306;18.926;2022-10-31T04:24:36;21.35;;;12.52;;
41623;SDS011;27319;50.306;18.926;2022-10-31T04:27:39;22.92;;;13.27;;
41623;SDS011;27319;50.306;18.926;2022-10-31T04:30:40;21.30;;;13.82;;
41623;SDS011;27319;50.306;18.926;2022-10-31T04:33:41;22.02;;;12.70;;
41623;SDS011;27319;50.306;18.926;2022-10-31T04:36:42;19.08;;;11.48;;
41623;SDS011;27319;50.306;18.926;2022-10-31T04:39:43;22.33;;;11.85;;
41623;SDS011;27319;50.306;18.926;2022-10-31T04:42:43;20.13;;;11.88;;
41623;SDS011;27319;50.306;18.926;2022-10-31T04:46:44;18.17;;;10.88;;
41623;SDS011;27319;50.306;18.926;2022-10-31T04:50:45;17.33;;;10.88;;
41623;SDS011;27319;50.306;18.926;2022-10-31T04:54:46;19.38;;;11.90;;
41623;SDS011;27319;50.306;18.926;2022-10-31T04:58:46;22.70;;;11.90;;
41623;SDS011;27319;50.306;18.926;2022-10-31T05:02:48;20.75;;;11.43;;
41623;SDS011;27319;50.306;18.926;2022-10-31T05:05:50;19.88;;;11.32;;
41623;SDS011;27319;50.306;18.926;2022-10-31T05:08:52;18.67;;;12.02;;
41623;SDS011;27319;50.306;18.926;2022-10-31T05:11:52;17.48;;;11.23;;
41623;SDS011;27319;50.306;18.926;2022-10-31T05:14:54;19.52;;;11.48;;
41623;SDS011;27319;50.306;18.926;2022-10-31T05:17:54;23.33;;;12.57;;
41623;SDS011;27319;50.306;18.926;2022-10-31T05:20:56;18.38;;;12.48;;
41623;SDS011;27319;50.306;18.926;2022-10-31T05:23:56;22.70;;;13.13;;
41623;SDS011;27319;50.306;18.926;2022-10-31T05:27:57;27.08;;;15.55;;
41623;SDS011;27319;50.306;18.926;2022-10-31T05:31:57;35.35;;;17.20;;
41623;SDS011;27319;50.306;18.926;2022-10-31T05:35:58;29.30;;;17.77;;
41623;SDS011;27319;50.306;18.926;2022-10-31T05:39:59;28.08;;;17.98;;
41623;SDS011;27319;50.306;18.926;2022-10-31T05:43:59;34.38;;;18.17;;
41623;SDS011;27319;50.306;18.926;2022-10-31T05:48:01;27.42;;;17.63;;
41623;SDS011;27319;50.306;18.926;2022-10-31T05:52:01;27.35;;;16.38;;
41623;SDS011;27319;50.306;18.926;2022-10-31T05:56:01;27.98;;;15.82;;
41623;SDS011;27319;50.306;18.926;2022-10-31T06:00:03;25.90;;;16.08;;
41623;SDS011;27319;50.306;18.926;2022-10-31T06:04:02;23.23;;;14.63;;
41623;SDS011;27319;50.306;18.926;2022-10-31T06:08:03;25.27;;;14.60;;
41623;SDS011;27319;50.306;18.926;2022-10-31T06:12:04;23.35;;;14.02;;
41623;SDS011;27319;50.306;18.926;2022-10-31T06:16:05;29.77;;;15.38;;
41623;SDS011;27319;50.306;18.926;2022-10-31T06:20:05;30.70;;;13.52;;
41623;SDS011;27319;50.306;18.926;2022-10-31T06:24:06;23.13;;;13.90;;
41623;SDS011;27319;50.306;18.926;2022-10-31T06:28:06;27.52;;;13.98;;
41623;SDS011;27319;50.306;18.926;2022-10-31T06:32:09;27.95;;;13.80;;
41623;SDS011;27319;50.306;18.926;2022-10-31T06:35:10;22.85;;;13.20;;
41623;SDS011;27319;50.306;18.926;2022-10-31T06:38:14;21.02;;;13.30;;
41623;SDS011;27319;50.306;18.926;2022-10-31T06:41:18;23.73;;;14.73;;
41623;SDS011;27319;50.306;18.926;2022-10-31T06:44:20;29.48;;;14.82;;
41623;SDS011;27319;50.306;18.926;2022-10-31T06:47:20;24.13;;;14.43;;
41623;SDS011;27319;50.306;18.926;2022-10-31T06:50:22;28.60;;;16.25;;
41623;SDS011;27319;50.306;18.926;2022-10-31T06:53:23;25.70;;;14.25;;
41623;SDS011;27319;50.306;18.926;2022-10-31T06:56:24;21.67;;;13.80;;
41623;SDS011;27319;50.306;18.926;2022-10-31T06:59:25;27.48;;;15.27;;
41623;SDS011;27319;50.306;18.926;2022-10-31T07:02:42;26.23;;;15.00;;
41623;SDS011;27319;50.306;18.926;2022-10-31T07:05:42;23.55;;;14.25;;
41623;SDS011;27319;50.306;18.926;2022-10-31T07:08:44;28.85;;;16.40;;
41623;SDS011;27319;50.306;18.926;2022-10-31T07:11:48;27.55;;;17.33;;
41623;SDS011;27319;50.306;18.926;2022-10-31T07:15:09;34.03;;;18.08;;
41623;SDS011;27319;50.306;18.926;2022-10-31T07:18:27;29.40;;;18.10;;
41623;SDS011;27319;50.306;18.926;2022-10-31T07:21:28;31.70;;;20.40;;
41623;SDS011;27319;50.306;18.926;2022-10-31T07:24:29;36.70;;;20.75;;
41623;SDS011;27319;50.306;18.926;2022-10-31T07:27:40;35.35;;;18.88;;
41623;SDS011;27319;50.306;18.926;2022-10-31T07:30:50;33.78;;;19.20;;
41623;SDS011;27319;50.306;18.926;2022-10-31T07:33:52;35.13;;;15.25;;
41623;SDS011;27319;50.306;18.926;2022-10-31T07:36:53;28.30;;;16.30;;
41623;SDS011;27319;50.306;18.926;2022-10-31T07:39:54;26.35;;;14.65;;
41623;SDS011;27319;50.306;18.926;2022-10-31T07:42:57;27.10;;;15.35;;
41623;SDS011;27319;50.306;18.926;2022-10-31T07:45:58;25.77;;;13.10;;
41623;SDS011;27319;50.306;18.926;2022-10-31T07:48:59;27.98;;;13.60;;
41623;SDS011;27319;50.306;18.926;2022-10-31T07:52:00;30.10;;;16.20;;
41623;SDS011;27319;50.306;18.926;2022-10-31T07:55:01;26.90;;;14.43;;
41623;SDS011;27319;50.306;18.926;2022-10-31T07:58:11;36.53;;;19.90;;
41623;SDS011;27319;50.306;18.926;2022-10-31T08:02:10;27.17;;;14.80;;
41623;SDS011;27319;50.306;18.926;2022-10-31T08:06:07;25.08;;;13.60;;
41623;SDS011;27319;50.306;18.926;2022-10-31T08:09:07;21.58;;;13.45;;
41623;SDS011;27319;50.306;18.926;2022-10-31T08:12:43;27.60;;;14.55;;
41623;SDS011;27319;50.306;18.926;2022-10-31T08:15:46;28.10;;;14.52;;
41623;SDS011;27319;50.306;18.926;2022-10-31T08:18:50;25.17;;;13.27;;
41623;SDS011;27319;50.306;18.926;2022-10-31T08:21:51;26.30;;;13.93;;
41623;SDS011;27319;50.306;18.926;2022-10-31T08:25:00;29.80;;;13.90;;
41623;SDS011;27319;50.306;18.926;2022-10-31T08:28:01;22.15;;;12.43;;
41623;SDS011;27319;50.306;18.926;2022-10-31T08:31:03;29.52;;;13.65;;
41623;SDS011;27319;50.306;18.926;2022-10-31T08:34:19;26.35;;;13.38;;
41623;SDS011;27319;50.306;18.926;2022-10-31T08:37:20;26.70;;;13.13;;
41623;SDS011;27319;50.306;18.926;2022-10-31T08:40:23;27.25;;;14.27;;
41623;SDS011;27319;50.306;18.926;2022-10-31T08:43:25;24.25;;;13.23;;
41623;SDS011;27319;50.306;18.926;2022-10-31T08:46:31;25.45;;;12.60;;
41623;SDS011;27319;50.306;18.926;2022-10-31T08:49:33;29.65;;;15.07;;
41623;SDS011;27319;50.306;18.926;2022-10-31T08:53:33;31.63;;;14.35;;
41623;SDS011;27319;50.306;18.926;2022-10-31T08:57:34;27.77;;;13.27;;
41623;SDS011;27319;50.306;18.926;2022-10-31T09:01:34;24.38;;;13.32;;
41623;SDS011;27319;50.306;18.926;2022-10-31T09:04:35;22.48;;;13.38;;
41623;SDS011;27319;50.306;18.926;2022-10-31T09:07:57;22.60;;;12.80;;
41623;SDS011;27319;50.306;18.926;2022-10-31T09:11:57;29.73;;;12.80;;
41623;SDS011;27319;50.306;18.926;2022-10-31T09:15:57;26.58;;;12.63;;
41623;SDS011;27319;50.306;18.926;2022-10-31T09:19:58;27.00;;;13.00;;
41623;SDS011;27319;50.306;18.926;2022-10-31T09:23:58;26.52;;;11.63;;
41623;SDS011;27319;50.306;18.926;2022-10-31T09:27:00;28.00;;;12.05;;
41623;SDS011;27319;50.306;18.926;2022-10-31T09:31:00;28.40;;;13.20;;
41623;SDS011;27319;50.306;18.926;2022-10-31T09:35:01;27.23;;;12.15;;
41623;SDS011;27319;50.306;18.926;2022-10-31T09:39:01;23.98;;;12.27;;
41623;SDS011;27319;50.306;18.926;2022-10-31T09:46:52;24.38;;;10.50;;
41623;SDS011;27319;50.306;18.926;2022-10-31T09:50:51;33.47;;;11.43;;
41623;SDS011;27319;50.306;18.926;2022-10-31T09:54:58;18.95;;;10.68;;
41623;SDS011;27319;50.306;18.926;2022-10-31T09:58:40;23.55;;;11.00;;
41623;SDS011;27319;50.306;18.926;2022-10-31T10:01:48;26.17;;;12.23;;
41623;SDS011;27319;50.306;18.926;2022-10-31T10:04:56;24.77;;;11.65;;
41623;SDS011;27319;50.306;18.926;2022-10-31T10:08:07;23.23;;;11.60;;
41623;SDS011;27319;50.306;18.926;2022-10-31T10:18:32;32.70;;;11.43;;
41623;SDS011;27319;50.306;18.926;2022-10-31T10:28:35;31.00;;;11.93;;
41623;SDS011;27319;50.306;18.926;2022-10-31T10:32:40;20.75;;;10.07;;
41623;SDS011;27319;50.306;18.926;2022-10-31T10:36:37;21.20;;;9.93;;
41623;SDS011;27319;50.306;18.926;2022-10-31T10:39:44;26.15;;;8.80;;
41623;SDS011;27319;50.306;18.926;2022-10-31T10:43:32;25.00;;;10.43;;
41623;SDS011;27319;50.306;18.926;2022-10-31T10:46:40;23.33;;;9.75;;
41623;SDS011;27319;50.306;18.926;2022-10-31T10:50:02;21.70;;;10.18;;
41623;SDS011;27319;50.306;18.926;2022-10-31T11:00:37;25.38;;;9.20;;
41623;SDS011;27319;50.306;18.926;2022-10-31T11:03:41;27.08;;;9.75;;
41623;SDS011;27319;50.306;18.926;2022-10-31T11:06:42;22.75;;;9.38;;
41623;SDS011;27319;50.306;18.926;2022-10-31T11:10:04;18.55;;;9.50;;
41623;SDS011;27319;50.306;18.926;2022-10-31T11:19:32;22.60;;;9.98;;
41623;SDS011;27319;50.306;18.926;2022-10-31T11:22:32;23.05;;;9.70;;
41623;SDS011;27319;50.306;18.926;2022-10-31T11:25:33;23.65;;;8.70;;
41623;SDS011;27319;50.306;18.926;2022-10-31T11:28:34;17.73;;;9.07;;
41623;SDS011;27319;50.306;18.926;2022-10-31T11:31:35;25.67;;;9.55;;
41623;SDS011;27319;50.306;18.926;2022-10-31T11:34:37;28.13;;;11.80;;
41623;SDS011;27319;50.306;18.926;2022-10-31T11:37:44;24.65;;;9.85;;
41623;SDS011;27319;50.306;18.926;2022-10-31T11:41:24;23.02;;;10.18;;
41623;SDS011;27319;50.306;18.926;2022-10-31T11:44:25;21.30;;;9.35;;
41623;SDS011;27319;50.306;18.926;2022-10-31T11:47:28;29.08;;;9.43;;
41623;SDS011;27319;50.306;18.926;2022-10-31T11:51:30;26.13;;;10.32;;
41623;SDS011;27319;50.306;18.926;2022-10-31T11:55:29;21.80;;;10.00;;
41623;SDS011;27319;50.306;18.926;2022-10-31T11:58:36;28.30;;;10.70;;
41623;SDS011;27319;50.306;18.926;2022-10-31T12:01:39;26.90;;;10.57;;
41623;SDS011;27319;50.306;18.926;2022-10-31T12:05:04;22.23;;;9.93;;
41623;SDS011;27319;50.306;18.926;2022-10-31T12:08:17;21.92;;;9.57;;
41623;SDS011;27319;50.306;18.926;2022-10-31T12:21:15;25.60;;;9.63;;
41623;SDS011;27319;50.306;18.926;2022-10-31T12:54:55;19.48;;;8.60;;
41623;SDS011;27319;50.306;18.926;2022-10-31T12:59:15;18.58;;;8.98;;
41623;SDS011;27319;50.306;18.926;2022-10-31T13:02:24;24.67;;;8.73;;
41623;SDS011;27319;50.306;18.926;2022-10-31T13:06:38;15.18;;;7.50;;
41623;SDS011;27319;50.306;18.926;2022-10-31T13:11:06;21.40;;;7.00;;
41623;SDS011;27319;50.306;18.926;2022-10-31T13:14:26;19.15;;;7.65;;
41623;SDS011;27319;50.306;18.926;2022-10-31T13:18:30;18.38;;;7.07;;
41623;SDS011;27319;50.306;18.926;2022-10-31T13:22:20;22.40;;;6.93;;
41623;SDS011;27319;50.306;18.926;2022-10-31T13:25:27;17.33;;;6.43;;
41623;SDS011;27319;50.306;18.926;2022-10-31T13:29:33;16.30;;;6.60;;
41623;SDS011;27319;50.306;18.926;2022-10-31T13:33:46;23.83;;;7.60;;
41623;SDS011;27319;50.306;18.926;2022-10-31T13:43:39;17.40;;;6.82;;
41623;SDS011;27319;50.306;18.926;2022-10-31T13:46:48;14.90;;;7.57;;
41623;SDS011;27319;50.306;18.926;2022-10-31T13:49:49;15.38;;;6.45;;
41623;SDS011;27319;50.306;18.926;2022-10-31T13:57:22;19.45;;;8.23;;
41623;SDS011;27319;50.306;18.926;2022-10-31T14:00:31;14.93;;;6.20;;
41623;SDS011;27319;50.306;18.926;2022-10-31T14:04:51;15.48;;;6.70;;
41623;SDS011;27319;50.306;18.926;2022-10-31T14:08:25;16.40;;;6.60;;
41623;SDS011;27319;50.306;18.926;2022-10-31T14:12:33;15.50;;;6.70;;
41623;SDS011;27319;50.306;18.926;2022-10-31T14:16:32;14.50;;;7.57;;
41623;SDS011;27319;50.306;18.926;2022-10-31T14:19:38;20.40;;;6.55;;
41623;SDS011;27319;50.306;18.926;2022-10-31T14:22:39;23.23;;;7.63;;
41623;SDS011;27319;50.306;18.926;2022-10-31T14:26:39;16.60;;;6.68;;
41623;SDS011;27319;50.306;18.926;2022-10-31T14:30:50;13.98;;;7.10;;
41623;SDS011;27319;50.306;18.926;2022-10-31T14:53:49;23.30;;;8.10;;
41623;SDS011;27319;50.306;18.926;2022-10-31T14:57:48;21.83;;;8.35;;
41623;SDS011;27319;50.306;18.926;2022-10-31T15:02:09;22.73;;;8.70;;
41623;SDS011;27319;50.306;18.926;2022-10-31T15:05:11;20.60;;;7.90;;
41623;SDS011;27319;50.306;18.926;2022-10-31T15:09:30;18.52;;;8.50;;
41623;SDS011;27319;50.306;18.926;2022-10-31T15:13:24;27.90;;;9.00;;
41623;SDS011;27319;50.306;18.926;2022-10-31T15:16:26;18.65;;;8.05;;
41623;SDS011;27319;50.306;18.926;2022-10-31T15:19:32;24.85;;;8.45;;
41623;SDS011;27319;50.306;18.926;2022-10-31T15:22:35;22.15;;;8.55;;
41623;SDS011;27319;50.306;18.926;2022-10-31T15:26:37;47.55;;;21.42;;
41623;SDS011;27319;50.306;18.926;2022-10-31T15:30:36;26.70;;;16.35;;
41623;SDS011;27319;50.306;18.926;2022-10-31T15:34:40;31.33;;;11.25;;
41623;SDS011;27319;50.306;18.926;2022-10-31T15:38:20;33.85;;;11.18;;
41623;SDS011;27319;50.306;18.926;2022-10-31T15:42:23;30.58;;;10.80;;
41623;SDS011;27319;50.306;18.926;2022-10-31T15:46:21;36.03;;;10.40;;
41623;SDS011;27319;50.306;18.926;2022-10-31T15:50:30;25.75;;;11.80;;
41623;SDS011;27319;50.306;18.926;2022-10-31T15:54:28;25.45;;;13.73;;
41623;SDS011;27319;50.306;18.926;2022-10-31T15:57:30;25.17;;;13.18;;
41623;SDS011;27319;50.306;18.926;2022-10-31T16:00:32;39.67;;;17.75;;
41623;SDS011;27319;50.306;18.926;2022-10-31T16:04:22;37.50;;;16.92;;
41623;SDS011;27319;50.306;18.926;2022-10-31T16:08:22;31.40;;;15.30;;
41623;SDS011;27319;50.306;18.926;2022-10-31T16:12:22;34.85;;;15.15;;
41623;SDS011;27319;50.306;18.926;2022-10-31T16:16:12;31.08;;;13.80;;
41623;SDS011;27319;50.306;18.926;2022-10-31T16:20:22;40.42;;;13.15;;
41623;SDS011;27319;50.306;18.926;2022-10-31T16:27:49;30.50;;;11.50;;
41623;SDS011;27319;50.306;18.926;2022-10-31T16:31:54;20.30;;;10.93;;
41623;SDS011;27319;50.306;18.926;2022-10-31T16:35:55;21.02;;;10.57;;
41623;SDS011;27319;50.306;18.926;2022-10-31T16:39:01;25.48;;;11.13;;
41623;SDS011;27319;50.306;18.926;2022-10-31T16:43:02;29.65;;;10.95;;
41623;SDS011;27319;50.306;18.926;2022-10-31T16:47:12;31.17;;;11.60;;
41623;SDS011;27319;50.306;18.926;2022-10-31T16:51:12;34.15;;;11.60;;
41623;SDS011;27319;50.306;18.926;2022-10-31T16:55:13;26.02;;;11.93;;
41623;SDS011;27319;50.306;18.926;2022-10-31T16:59:13;30.73;;;12.40;;
41623;SDS011;27319;50.306;18.926;2022-10-31T17:03:14;27.30;;;11.35;;
41623;SDS011;27319;50.306;18.926;2022-10-31T17:07:14;33.30;;;14.25;;
41623;SDS011;27319;50.306;18.926;2022-10-31T17:11:17;25.92;;;12.82;;
41623;SDS011;27319;50.306;18.926;2022-10-31T17:15:03;30.65;;;14.77;;
41623;SDS011;27319;50.306;18.926;2022-10-31T17:18:08;27.45;;;14.60;;
41623;SDS011;27319;50.306;18.926;2022-10-31T17:22:09;33.03;;;14.23;;
41623;SDS011;27319;50.306;18.926;2022-10-31T17:26:08;36.22;;;18.25;;
41623;SDS011;27319;50.306;18.926;2022-10-31T17:30:10;35.78;;;19.58;;
41623;SDS011;27319;50.306;18.926;2022-10-31T17:34:09;34.80;;;20.50;;
41623;SDS011;27319;50.306;18.926;2022-10-31T17:38:10;44.85;;;21.30;;
41623;SDS011;27319;50.306;18.926;2022-10-31T17:42:10;38.05;;;20.00;;
41623;SDS011;27319;50.306;18.926;2022-10-31T17:45:11;48.40;;;19.52;;
41623;SDS011;27319;50.306;18.926;2022-10-31T17:49:11;38.83;;;19.20;;
41623;SDS011;27319;50.306;18.926;2022-10-31T17:53:12;42.53;;;19.15;;
41623;SDS011;27319;50.306;18.926;2022-10-31T17:57:13;37.47;;;17.15;;
41623;SDS011;27319;50.306;18.926;2022-10-31T18:01:14;37.20;;;17.63;;
41623;SDS011;27319;50.306;18.926;2022-10-31T18:04:17;30.10;;;16.33;;
41623;SDS011;27319;50.306;18.926;2022-10-31T18:08:17;35.85;;;15.50;;
41623;SDS011;27319;50.306;18.926;2022-10-31T18:11:34;37.60;;;15.30;;
41623;SDS011;27319;50.306;18.926;2022-10-31T18:14:35;36.67;;;16.17;;
41623;SDS011;27319;50.306;18.926;2022-10-31T18:18:36;35.83;;;16.60;;
41623;SDS011;27319;50.306;18.926;2022-10-31T18:22:36;28.13;;;14.75;;
41623;SDS011;27319;50.306;18.926;2022-10-31T18:26:37;34.63;;;15.18;;
41623;SDS011;27319;50.306;18.926;2022-10-31T18:30:38;31.17;;;16.27;;
41623;SDS011;27319;50.306;18.926;2022-10-31T18:34:38;27.67;;;15.60;;
41623;SDS011;27319;50.306;18.926;2022-10-31T18:38:40;34.10;;;16.25;;
41623;SDS011;27319;50.306;18.926;2022-10-31T18:42:40;40.85;;;16.55;;
41623;SDS011;27319;50.306;18.926;2022-10-31T18:46:40;27.92;;;15.23;;
41623;SDS011;27319;50.306;18.926;2022-10-31T18:50:41;36.97;;;14.80;;
41623;SDS011;27319;50.306;18.926;2022-10-31T18:54:41;35.50;;;17.10;;
41623;SDS011;27319;50.306;18.926;2022-10-31T18:58:42;41.90;;;21.95;;
41623;SDS011;27319;50.306;18.926;2022-10-31T19:02:42;46.38;;;25.65;;
41623;SDS011;27319;50.306;18.926;2022-10-31T19:06:43;35.38;;;22.75;;
41623;SDS011;27319;50.306;18.926;2022-10-31T19:10:44;45.28;;;23.88;;
41623;SDS011;27319;50.306;18.926;2022-10-31T19:14:47;36.67;;;22.13;;
41623;SDS011;27319;50.306;18.926;2022-10-31T19:18:48;43.05;;;22.65;;
41623;SDS011;27319;50.306;18.926;2022-10-31T19:22:48;35.88;;;21.10;;
41623;SDS011;27319;50.306;18.926;2022-10-31T19:26:49;44.33;;;23.38;;
41623;SDS011;27319;50.306;18.926;2022-10-31T19:30:00;40.63;;;23.73;;
41623;SDS011;27319;50.306;18.926;2022-10-31T19:33:00;43.97;;;24.80;;
41623;SDS011;27319;50.306;18.926;2022-10-31T19:36:16;47.38;;;28.75;;
41623;SDS011;27319;50.306;18.926;2022-10-31T19:40:15;52.85;;;28.88;;
41623;SDS011;27319;50.306;18.926;2022-10-31T19:44:16;47.28;;;27.42;;
41623;SDS011;27319;50.306;18.926;2022-10-31T19:48:16;45.42;;;25.63;;
41623;SDS011;27319;50.306;18.926;2022-10-31T19:51:25;47.22;;;26.30;;
41623;SDS011;27319;50.306;18.926;2022-10-31T19:55:05;45.03;;;26.30;;
41623;SDS011;27319;50.306;18.926;2022-10-31T19:59:06;54.55;;;26.92;;
41623;SDS011;27319;50.306;18.926;2022-10-31T20:03:07;61.75;;;30.63;;
41623;SDS011;27319;50.306;18.926;2022-10-31T20:07:07;69.93;;;35.22;;
41623;SDS011;27319;50.306;18.926;2022-10-31T20:10:08;81.03;;;39.72;;
41623;SDS011;27319;50.306;18.926;2022-10-31T20:14:09;78.10;;;39.55;;
41623;SDS011;27319;50.306;18.926;2022-10-31T20:18:09;79.13;;;40.45;;
41623;SDS011;27319;50.306;18.926;2022-10-31T20:22:10;53.85;;;31.23;;
41623;SDS011;27319;50.306;18.926;2022-10-31T20:26:12;65.90;;;34.42;;
41623;SDS011;27319;50.306;18.926;2022-10-31T20:30:11;78.72;;;38.65;;
41623;SDS011;27319;50.306;18.926;2022-10-31T20:34:12;64.15;;;36.10;;
41623;SDS011;27319;50.306;18.926;2022-10-31T20:37:13;68.35;;;33.88;;
41623;SDS011;27319;50.306;18.926;2022-10-31T20:40:14;65.05;;;35.00;;
41623;SDS011;27319;50.306;18.926;2022-10-31T20:44:15;72.68;;;36.97;;
41623;SDS011;27319;50.306;18.926;2022-10-31T20:47:16;68.38;;;39.13;;
41623;SDS011;27319;50.306;18.926;2022-10-31T20:51:18;74.72;;;43.22;;
41623;SDS011;27319;50.306;18.926;2022-10-31T20:55:17;90.78;;;47.97;;
41623;SDS011;27319;50.306;18.926;2022-10-31T20:59:18;73.97;;;42.40;;
41623;SDS011;27319;50.306;18.926;2022-10-31T21:03:18;83.28;;;45.75;;
41623;SDS011;27319;50.306;18.926;2022-10-31T21:07:19;83.75;;;46.35;;
41623;SDS011;27319;50.306;18.926;2022-10-31T21:10:59;91.18;;;46.92;;
41623;SDS011;27319;50.306;18.926;2022-10-31T21:15:00;89.18;;;47.63;;
41623;SDS011;27319;50.306;18.926;2022-10-31T21:19:01;87.68;;;47.00;;
41623;SDS011;27319;50.306;18.926;2022-10-31T21:23:01;84.22;;;46.83;;
41623;SDS011;27319;50.306;18.926;2022-10-31T21:27:02;89.60;;;46.55;;
41623;SDS011;27319;50.306;18.926;2022-10-31T21:30:04;79.43;;;43.60;;
41623;SDS011;27319;50.306;18.926;2022-10-31T21:33:05;80.78;;;42.80;;
41623;SDS011;27319;50.306;18.926;2022-10-31T21:37:06;84.32;;;41.65;;
41623;SDS011;27319;50.306;18.926;2022-10-31T21:40:10;79.57;;;42.60;;
41623;SDS011;27319;50.306;18.926;2022-10-31T21:43:12;77.95;;;44.70;;
41623;SDS011;27319;50.306;18.926;2022-10-31T21:47:15;80.63;;;44.53;;
41623;SDS011;27319;50.306;18.926;2022-10-31T21:51:19;73.65;;;42.47;;
41623;SDS011;27319;50.306;18.926;2022-10-31T21:55:16;80.95;;;42.42;;
41623;SDS011;27319;50.306;18.926;2022-10-31T21:59:17;77.95;;;42.13;;
41623;SDS011;27319;50.306;18.926;2022-10-31T22:03:17;76.80;;;43.88;;
41623;SDS011;27319;50.306;18.926;2022-10-31T22:06:18;84.95;;;44.97;;
41623;SDS011;27319;50.306;18.926;2022-10-31T22:10:22;75.55;;;41.28;;
41623;SDS011;27319;50.306;18.926;2022-10-31T22:13:23;78.95;;;43.50;;
41623;SDS011;27319;50.306;18.926;2022-10-31T22:17:24;78.28;;;41.90;;
41623;SDS011;27319;50.306;18.926;2022-10-31T22:21:25;71.63;;;40.40;;
41623;SDS011;27319;50.306;18.926;2022-10-31T22:24:27;80.18;;;44.60;;
41623;SDS011;27319;50.306;18.926;2022-10-31T22:27:28;75.55;;;42.63;;
41623;SDS011;27319;50.306;18.926;2022-10-31T22:30:28;77.95;;;42.53;;
41623;SDS011;27319;50.306;18.926;2022-10-31T22:33:29;74.72;;;41.17;;
41623;SDS011;27319;50.306;18.926;2022-10-31T22:36:30;78.60;;;43.60;;
41623;SDS011;27319;50.306;18.926;2022-10-31T22:39:31;82.40;;;44.55;;
41623;SDS011;27319;50.306;18.926;2022-10-31T22:43:32;73.80;;;40.72;;
41623;SDS011;27319;50.306;18.926;2022-10-31T22:46:34;79.25;;;44.92;;
41623;SDS011;27319;50.306;18.926;2022-10-31T22:50:34;75.88;;;44.63;;